Time;durP1;ratioP1;P1;durP2;ratioP2;P2;SDS_P1;SDS_P2;PMS_P1;PMS_P2;Temp;Humidity;BMP_temperature;BMP_pressure;BME280_temperature;BME280_humidity;BME280_pressure;Samples;Min_cycle;Max_cycle;Signal;HPM_P1;HPM_P2
2022/10/19 05:14:17;;;;;;;;;2.67;2.67;;;;;19.31;62.67;101734.22;5109852;27;46140;-78
2022/10/19 05:16:42;;;;;;;;;2.67;2.67;;;;;19.47;63.25;101737.50;5065555;27;47216;-77
2022/10/19 05:19:12;;;;;;;;;3.00;3.00;;;;;19.68;62.62;101735.94;5067936;27;45716;-75
2022/10/19 05:21:37;;;;;;;;;3.00;3.00;;;;;19.90;62.85;101734.28;5068506;27;45494;-76
2022/10/19 05:24:03;;;;;;;;;3.67;2.00;;;;;20.17;62.12;101733.09;5067495;27;45652;-75
2022/10/19 05:26:29;;;;;;;;;3.00;3.00;;;;;20.44;62.37;101732.72;5072754;27;45771;-76
2022/10/19 05:28:58;;;;;;;;;4.67;4.00;;;;;20.71;61.67;101728.75;5070860;27;45824;-74
2022/10/19 05:31:25;;;;;;;;;3.00;3.00;;;;;20.98;61.63;101729.34;5067907;27;45737;-75
2022/10/19 05:33:50;;;;;;;;;5.00;3.33;;;;;21.24;61.27;101737.97;5071927;27;46652;-77
2022/10/19 05:36:25;;;;;;;;;3.00;3.00;;;;;21.45;60.56;101720.91;5075739;27;50110;-76
2022/10/19 05:38:52;;;;;;;;;2.00;2.00;;;;;21.68;60.13;101718.97;5061945;27;45839;-77
2022/10/19 05:41:19;;;;;;;;;2.33;2.00;;;;;21.89;59.84;101710.00;5082895;27;45644;-76
2022/10/19 05:43:45;;;;;;;;;4.00;4.00;;;;;22.09;58.98;101710.97;5066941;27;46155;-75
2022/10/19 05:46:18;;;;;;;;;4.00;3.00;;;;;22.26;58.14;101697.78;5068035;27;45879;-74
2022/10/19 05:48:44;;;;;;;;;3.33;3.33;;;;;22.46;57.35;101701.41;5064006;27;45512;-75
2022/10/19 05:51:12;;;;;;;;;3.33;3.00;;;;;22.59;57.10;101694.91;5058806;27;45757;-74
2022/10/19 05:53:38;;;;;;;;;3.00;3.00;;;;;22.70;56.62;101702.06;5054376;27;46305;-74
2022/10/19 05:56:05;;;;;;;;;4.33;4.33;;;;;22.75;56.26;101703.34;5053257;27;45422;-75
2022/10/19 05:58:32;;;;;;;;;3.00;3.00;;;;;22.83;55.91;101707.19;5050497;27;45527;-75
2022/10/19 06:00:58;;;;;;;;;3.00;3.00;;;;;22.91;55.98;101710.06;5065248;27;45523;-74
2022/10/19 06:03:25;;;;;;;;;5.33;5.33;;;;;22.97;56.01;101709.50;5059637;27;47725;-75
2022/10/19 06:05:51;;;;;;;;;2.33;2.33;;;;;23.03;55.09;101708.94;5068044;27;45525;-73
2022/10/19 06:08:18;;;;;;;;;2.00;2.00;;;;;23.11;55.23;101710.06;5068162;27;45643;-75
2022/10/19 06:10:44;;;;;;;;;4.67;2.67;;;;;23.17;55.18;101713.06;5065454;27;45394;-75
2022/10/19 06:13:10;;;;;;;;;3.00;3.00;;;;;23.20;54.98;101702.94;5080349;27;46246;-76
2022/10/19 06:15:38;;;;;;;;;3.00;3.00;;;;;23.23;55.24;101703.53;5072776;27;45503;-78
2022/10/19 06:18:07;;;;;;;;;3.00;3.00;;;;;23.27;55.05;101698.66;5068164;27;45489;-77
2022/10/19 06:20:34;;;;;;;;;3.67;3.67;;;;;23.30;55.01;101709.22;5080967;27;45642;-81
2022/10/19 06:23:00;;;;;;;;;5.00;3.00;;;;;23.35;55.30;101708.81;5072948;27;46599;-81
2022/10/19 06:25:25;;;;;;;;;2.33;2.33;;;;;23.38;55.02;101713.97;5057347;27;45557;-82
2022/10/19 06:27:51;;;;;;;;;3.67;3.67;;;;;23.46;55.17;101707.81;5052834;28;57082;-80
2022/10/19 06:30:17;;;;;;;;;6.00;3.00;;;;;23.52;54.92;101707.22;5042659;28;45843;-77
2022/10/19 06:32:42;;;;;;;;;3.00;3.00;;;;;23.58;54.90;101705.78;5058452;27;45517;-81
2022/10/19 06:35:08;;;;;;;;;4.00;4.00;;;;;23.62;54.63;101707.22;5054173;28;45503;-77
2022/10/19 06:37:33;;;;;;;;;1.33;1.00;;;;;23.65;54.70;101709.63;5067669;28;45850;-79
2022/10/19 06:39:58;;;;;;;;;2.00;2.00;;;;;23.72;54.69;101699.91;5052310;27;54085;-78
2022/10/19 06:42:24;;;;;;;;;4.33;4.33;;;;;23.72;54.36;101699.06;5048625;28;45443;-76
2022/10/19 06:44:49;;;;;;;;;3.00;3.00;;;;;23.80;54.52;101705.44;5054033;27;45810;-78
2022/10/19 06:47:14;;;;;;;;;4.00;2.33;;;;;23.86;54.50;101701.28;5049585;28;45457;-75
2022/10/19 06:49:39;;;;;;;;;7.00;5.00;;;;;23.87;54.39;101703.00;5054030;28;48658;-75
2022/10/19 06:52:06;;;;;;;;;2.67;2.67;;;;;23.94;54.59;101706.84;5061896;28;45432;-74
2022/10/19 06:54:31;;;;;;;;;3.00;3.00;;;;;23.98;54.40;101704.66;5066520;28;45503;-75
2022/10/19 06:56:57;;;;;;;;;2.67;2.67;;;;;24.01;53.84;101695.38;5048871;28;45479;-74
2022/10/19 06:59:22;;;;;;;;;5.33;3.33;;;;;24.04;54.12;101698.66;5058571;28;45562;-75
2022/10/19 07:01:47;;;;;;;;;5.00;3.00;;;;;24.07;54.08;101697.50;5057613;28;52600;-75
2022/10/19 07:04:13;;;;;;;;;2.00;2.00;;;;;24.11;54.13;101698.09;5062651;28;52186;-78
2022/10/19 07:06:38;;;;;;;;;3.67;3.67;;;;;24.13;53.89;101699.66;5052925;28;45626;-78
2022/10/19 07:09:03;;;;;;;;;2.67;2.67;;;;;24.14;54.01;101698.66;5055210;28;45471;-80
2022/10/19 07:11:29;;;;;;;;;3.67;3.67;;;;;24.21;53.86;101696.19;5053966;28;45421;-74
2022/10/19 07:13:54;;;;;;;;;5.00;3.00;;;;;24.24;53.73;101703.19;5057019;28;56786;-74
2022/10/19 07:16:20;;;;;;;;;4.00;3.00;;;;;24.24;53.58;101701.34;5056781;28;45334;-74
2022/10/19 07:18:45;;;;;;;;;2.67;2.67;;;;;24.25;53.56;101692.19;5055019;28;45704;-76
2022/10/19 07:21:14;;;;;;;;;4.00;4.00;;;;;24.26;53.68;101693.03;5050100;28;45964;-81
2022/10/19 07:23:41;;;;;;;;;1.33;1.33;;;;;24.28;53.67;101693.75;5053291;28;46806;-79
2022/10/19 07:26:12;;;;;;;;;3.00;3.00;;;;;24.30;53.55;101689.00;5056844;27;45448;-80
2022/10/19 07:28:39;;;;;;;;;2.67;2.67;;;;;24.31;53.67;101693.41;5053497;28;45531;-79
2022/10/19 07:31:10;;;;;;;;;3.00;3.00;;;;;24.34;53.44;101695.84;5045808;28;45462;-80
2022/10/19 07:33:35;;;;;;;;;4.00;4.00;;;;;24.36;53.33;101692.97;5051833;28;45429;-80
2022/10/19 07:36:04;;;;;;;;;2.67;2.67;;;;;24.37;53.33;101691.97;5050869;28;45461;-75
2022/10/19 07:38:30;;;;;;;;;3.00;3.00;;;;;24.39;51.58;101684.56;5058284;28;45663;-75
2022/10/19 07:41:01;;;;;;;;;4.00;4.00;;;;;24.41;51.70;101679.81;5051535;28;46579;-75
2022/10/19 07:43:26;;;;;;;;;6.33;3.33;;;;;24.48;51.64;101689.03;5075303;27;45511;-77
2022/10/19 07:46:04;;;;;;;;;3.67;3.67;;;;;24.44;51.84;101680.34;5047022;28;51807;-79
2022/10/19 07:48:29;;;;;;;;;3.00;3.00;;;;;24.44;51.83;101682.22;5055220;28;45643;-80
2022/10/19 07:50:55;;;;;;;;;4.00;3.00;;;;;24.44;51.98;101685.78;5050439;28;45891;-79
2022/10/19 07:53:21;;;;;;;;;6.00;4.67;;;;;24.42;52.05;101681.50;5052524;28;45428;-79
2022/10/19 07:55:46;;;;;;;;;3.00;3.00;;;;;24.44;52.35;101680.34;5054798;28;45403;-83
2022/10/19 07:58:11;;;;;;;;;3.67;3.67;;;;;24.51;52.66;101686.03;5058328;28;45505;-80
2022/10/19 08:00:37;;;;;;;;;3.00;3.00;;;;;24.54;52.33;101680.31;5066739;28;45902;-75
2022/10/19 08:03:02;;;;;;;;;2.33;2.33;;;;;24.59;52.29;101682.56;5053304;28;45508;-77
2022/10/19 08:05:28;;;;;;;;;4.00;4.00;;;;;24.63;52.30;101681.25;5055255;28;45481;-77
2022/10/19 08:07:53;;;;;;;;;3.00;3.00;;;;;24.64;52.32;101682.09;5052738;28;45450;-77
2022/10/19 08:10:18;;;;;;;;;4.67;4.67;;;;;24.66;51.92;101693.66;5058109;28;49628;-82
2022/10/19 08:12:44;;;;;;;;;4.67;4.67;;;;;24.70;51.79;101687.78;5058174;28;45614;-83
2022/10/19 08:15:09;;;;;;;;;5.67;5.00;;;;;24.72;51.93;101690.31;5054369;28;45322;-77
2022/10/19 08:17:35;;;;;;;;;5.00;4.33;;;;;24.70;51.81;101692.34;5063929;28;46200;-82
2022/10/19 08:20:02;;;;;;;;;7.00;4.00;;;;;24.69;52.04;101683.34;5056951;28;46253;-84
2022/10/19 08:22:27;;;;;;;;;5.00;4.67;;;;;24.67;51.72;101676.34;5055598;28;45534;-83
2022/10/19 08:24:52;;;;;;;;;4.00;4.00;;;;;24.69;52.07;101672.47;5056804;27;45438;-86
2022/10/19 08:27:18;;;;;;;;;4.00;4.00;;;;;24.73;51.96;101678.47;5055146;28;52009;-79
2022/10/19 08:29:43;;;;;;;;;4.00;4.00;;;;;24.78;52.00;101678.84;5066041;27;54751;-80
2022/10/19 08:32:09;;;;;;;;;4.67;4.67;;;;;24.77;52.17;101668.97;5054771;27;45903;-80
2022/10/19 08:34:34;;;;;;;;;3.33;2.67;;;;;24.80;52.25;101674.13;5054418;28;45399;-81
2022/10/19 08:37:01;;;;;;;;;4.33;4.00;;;;;24.79;52.24;101669.69;5059446;28;45497;-79
2022/10/19 08:39:26;;;;;;;;;4.00;4.00;;;;;24.81;52.01;101666.84;5052505;28;46151;-80
2022/10/19 08:42:03;;;;;;;;;4.33;4.33;;;;;24.83;52.20;101665.72;5059612;28;45569;-79
2022/10/19 08:45:09;;;;;;;;;4.67;4.67;;;;;24.82;51.89;101658.53;5053012;28;45834;-81
2022/10/19 08:47:49;;;;;;;;;4.00;3.00;;;;;24.89;52.08;101661.50;5053115;28;45393;-77
2022/10/19 08:50:22;;;;;;;;;2.00;1.00;;;;;24.91;51.78;101659.50;5051327;28;46992;-80
2022/10/19 08:52:59;;;;;;;;;4.00;4.00;;;;;24.95;52.10;101666.31;5054345;28;46142;-75
2022/10/19 08:55:39;;;;;;;;;2.67;2.67;;;;;24.98;51.79;101657.00;5053513;28;45818;-76
2022/10/19 08:58:23;;;;;;;;;3.33;3.33;;;;;24.98;51.70;101660.56;5054931;28;45527;-76
2022/10/19 09:00:57;;;;;;;;;2.33;2.33;;;;;25.03;51.82;101661.97;5062227;28;45530;-73
2022/10/19 09:03:35;;;;;;;;;5.00;3.00;;;;;25.04;51.11;101663.66;5067123;27;45591;-77
2022/10/19 09:06:21;;;;;;;;;4.00;3.33;;;;;24.98;51.29;101657.84;5053073;28;45543;-81
2022/10/19 09:08:49;;;;;;;;;3.67;3.67;;;;;24.94;50.97;101659.19;5057572;28;45266;-81
2022/10/19 09:11:21;;;;;;;;;3.00;3.00;;;;;24.96;51.51;101659.00;5052133;28;46130;-84
2022/10/19 09:13:48;;;;;;;;;4.67;4.67;;;;;24.91;51.58;101654.06;5053254;28;45412;-83
2022/10/19 09:16:18;;;;;;;;;3.00;3.00;;;;;24.91;51.25;101650.47;5052689;28;45533;-82
2022/10/19 09:18:45;;;;;;;;;3.67;3.67;;;;;24.94;51.76;101648.34;5057561;27;45748;-83
2022/10/19 09:21:27;;;;;;;;;5.33;5.00;;;;;24.95;51.74;101649.16;5052373;28;46581;-81
2022/10/19 09:24:11;;;;;;;;;4.00;4.00;;;;;24.96;51.60;101648.16;5052405;28;46888;-81
2022/10/19 09:26:51;;;;;;;;;5.00;5.00;;;;;24.92;51.34;101634.03;5053082;28;45478;-77
2022/10/19 09:29:35;;;;;;;;;3.67;3.67;;;;;25.00;51.90;101636.84;5048607;28;45569;-76
2022/10/19 09:32:04;;;;;;;;;5.00;3.67;;;;;24.99;51.37;101634.28;5053003;28;46234;-77
2022/10/19 09:34:39;;;;;;;;;4.00;4.00;;;;;25.01;51.68;101632.22;5068128;27;45566;-76
2022/10/19 09:37:04;;;;;;;;;4.33;3.33;;;;;25.03;51.58;101632.09;5052301;28;45537;-82
2022/10/19 09:39:30;;;;;;;;;4.67;3.33;;;;;25.07;51.21;101625.31;5053772;28;45571;-82
2022/10/19 09:41:59;;;;;;;;;5.67;4.33;;;;;25.11;51.33;101622.16;5049423;28;45732;-83
2022/10/19 09:44:26;;;;;;;;;3.33;3.33;;;;;25.15;51.53;101622.69;5053384;28;45426;-80
2022/10/19 09:47:09;;;;;;;;;2.33;2.33;;;;;25.19;51.62;101621.38;5054160;28;45945;-79
2022/10/19 09:49:40;;;;;;;;;4.00;4.00;;;;;25.20;51.30;101612.19;5057997;28;45696;-76
2022/10/19 09:52:23;;;;;;;;;5.00;5.00;;;;;25.20;51.25;101614.03;5052310;28;45994;-75
2022/10/19 09:55:04;;;;;;;;;2.33;2.33;;;;;25.18;51.59;101607.94;5054583;28;45619;-78
2022/10/19 09:57:30;;;;;;;;;4.00;4.00;;;;;25.20;51.26;101616.75;5048884;28;45499;-76
2022/10/19 09:59:55;;;;;;;;;4.00;4.00;;;;;25.22;51.34;101623.75;5063453;27;45605;-75
2022/10/19 10:02:28;;;;;;;;;4.00;4.00;;;;;25.24;50.88;101610.88;5056088;28;45427;-80
2022/10/19 10:05:02;;;;;;;;;4.00;4.00;;;;;25.25;51.30;101609.84;5052599;28;45403;-83
2022/10/19 10:07:34;;;;;;;;;3.00;3.00;;;;;25.31;51.20;101608.38;5051391;28;45448;-80
2022/10/19 10:10:00;;;;;;;;;5.00;3.67;;;;;25.29;51.06;101602.22;5056215;28;45490;-82
2022/10/19 10:12:26;;;;;;;;;4.33;4.33;;;;;25.36;50.94;101614.19;5055187;28;45438;-80
2022/10/19 10:14:54;;;;;;;;;6.00;4.33;;;;;25.41;51.11;101600.09;5056580;28;45470;-78
2022/10/19 10:17:25;;;;;;;;;3.00;3.00;;;;;25.43;51.38;101606.25;5060485;28;45513;-74
2022/10/19 10:20:05;;;;;;;;;2.67;2.67;;;;;25.48;51.06;101595.72;5060369;28;45509;-75
2022/10/19 10:22:33;;;;;;;;;4.00;4.00;;;;;25.52;50.84;101602.56;5058526;27;45438;-77
2022/10/19 10:24:59;;;;;;;;;4.67;3.00;;;;;25.56;50.71;101611.25;5056888;28;45801;-78
2022/10/19 10:27:33;;;;;;;;;5.00;5.00;;;;;25.65;50.45;101606.72;5057301;28;45497;-78
2022/10/19 10:29:58;;;;;;;;;3.33;3.33;;;;;25.67;50.73;101590.25;5057050;27;45455;-79
2022/10/19 10:32:25;;;;;;;;;4.00;4.00;;;;;25.70;50.29;101592.66;5058377;28;47330;-79
2022/10/19 10:35:03;;;;;;;;;4.33;4.00;;;;;25.69;50.75;101593.63;5055951;28;45544;-79
2022/10/19 10:37:59;;;;;;;;;6.33;4.67;;;;;25.69;50.86;101585.47;5056466;28;45347;-78
2022/10/19 10:40:29;;;;;;;;;4.00;3.00;;;;;25.70;50.62;101584.50;5027806;28;45790;-79
2022/10/19 10:43:05;;;;;;;;;4.67;4.67;;;;;25.70;50.07;101579.06;5032223;28;46171;-79
2022/10/19 10:45:39;;;;;;;;;3.00;3.00;;;;;25.72;49.89;101577.00;5033681;28;45878;-79
2022/10/19 10:48:22;;;;;;;;;2.33;2.33;;;;;25.72;50.16;101567.00;5033110;28;45720;-79
2022/10/19 10:50:48;;;;;;;;;4.33;4.33;;;;;25.70;50.44;101560.03;5033502;28;45700;-77
2022/10/19 10:53:36;;;;;;;;;3.00;3.00;;;;;25.73;50.48;101562.41;5033134;28;46348;-82
2022/10/19 10:56:03;;;;;;;;;3.67;3.67;;;;;25.72;49.79;101558.84;5031676;28;45584;-81
2022/10/19 10:58:38;;;;;;;;;4.00;4.00;;;;;25.73;50.37;101551.53;5032974;28;45843;-76
2022/10/19 11:01:09;;;;;;;;;4.00;4.00;;;;;25.72;49.90;101534.38;5033988;28;45541;-83
2022/10/19 11:03:40;;;;;;;;;3.33;3.33;;;;;25.77;50.04;101542.03;5033431;28;46214;-81
2022/10/19 11:06:07;;;;;;;;;5.67;5.67;;;;;25.82;50.29;101541.53;5034963;28;45365;-81
2022/10/19 11:08:51;;;;;;;;;4.33;4.33;;;;;25.86;49.93;101545.63;5032717;28;45878;-81
2022/10/19 11:11:36;;;;;;;;;4.00;4.00;;;;;25.90;50.12;101547.00;5037240;28;45531;-77
2022/10/19 11:14:20;;;;;;;;;4.00;4.00;;;;;25.96;50.19;101523.72;5037489;28;48653;-81
2022/10/19 11:16:48;;;;;;;;;5.00;5.00;;;;;25.98;49.91;101522.53;5032662;28;45401;-81
2022/10/19 11:19:28;;;;;;;;;4.67;4.67;;;;;25.99;49.88;101516.09;5068003;28;45535;-77
2022/10/19 11:21:53;;;;;;;;;5.00;4.33;;;;;26.00;49.50;101509.63;5056400;28;45426;-77
2022/10/19 11:24:31;;;;;;;;;3.33;3.33;;;;;26.01;49.86;101505.03;5060061;28;46775;-77
2022/10/19 11:27:26;;;;;;;;;4.00;4.00;;;;;26.04;49.79;101499.28;5069555;27;45691;-82
2022/10/19 11:30:00;;;;;;;;;3.00;3.00;;;;;26.13;49.12;101494.69;5062979;27;45473;-84
2022/10/19 11:32:55;;;;;;;;;5.67;5.67;;;;;26.14;49.33;101490.94;5058008;28;45401;-84
2022/10/19 11:35:32;;;;;;;;;4.33;4.00;;;;;26.14;49.60;101491.81;5055394;28;45466;-85
2022/10/19 11:38:12;;;;;;;;;4.00;4.00;;;;;26.19;49.38;101485.84;5056104;28;45387;-86
2022/10/19 11:40:42;;;;;;;;;5.00;5.00;;;;;26.20;49.82;101475.81;5056058;28;45411;-85
2022/10/19 11:43:24;;;;;;;;;3.00;3.00;;;;;26.23;49.08;101468.16;5056274;28;45332;-88
2022/10/19 11:46:01;;;;;;;;;5.00;5.00;;;;;26.31;49.37;101456.47;5057003;28;47506;-84
2022/10/19 11:48:53;;;;;;;;;5.00;5.00;;;;;26.35;49.35;101448.84;5055250;28;45464;-77
2022/10/19 11:51:43;;;;;;;;;3.00;3.00;;;;;26.41;49.25;101448.13;5069811;28;45497;-77
2022/10/19 11:54:24;;;;;;;;;4.00;4.00;;;;;26.44;49.96;101436.88;5062735;28;45450;-82
2022/10/19 11:56:58;;;;;;;;;4.00;4.00;;;;;26.47;49.57;101439.28;5061003;28;45759;-85
2022/10/19 11:59:41;;;;;;;;;3.00;3.00;;;;;26.53;49.33;101443.19;5057605;27;45407;-80
2022/10/19 12:02:36;;;;;;;;;4.33;4.00;;;;;26.55;49.61;101441.13;5065950;28;45461;-80
2022/10/19 12:05:30;;;;;;;;;4.00;4.00;;;;;26.57;49.44;101439.09;5053260;28;45749;-76
2022/10/19 12:08:27;;;;;;;;;4.00;4.00;;;;;26.61;49.62;101436.88;5064109;28;46413;-77
2022/10/19 12:10:58;;;;;;;;;4.33;3.00;;;;;26.63;49.17;101435.69;5061553;27;45773;-77
2022/10/19 12:13:36;;;;;;;;;5.00;5.00;;;;;26.64;49.11;101445.56;5056470;28;45938;-76
2022/10/19 12:16:04;;;;;;;;;3.67;3.67;;;;;26.59;49.38;101437.06;5064856;28;45427;-80
2022/10/19 12:18:45;;;;;;;;;6.00;5.00;;;;;26.65;49.26;101443.69;5059379;28;46616;-77
2022/10/19 12:21:23;;;;;;;;;3.00;3.00;;;;;26.65;49.50;101439.06;5059816;28;45356;-78
2022/10/19 12:23:50;;;;;;;;;4.33;4.00;;;;;26.65;49.87;101424.63;5047333;28;45419;-80
2022/10/19 12:26:19;;;;;;;;;4.33;4.33;;;;;26.64;49.50;101418.31;5060836;28;45336;-79
2022/10/19 12:28:53;;;;;;;;;5.00;5.00;;;;;26.65;49.79;101416.47;5063652;27;46402;-79
2022/10/19 12:31:21;;;;;;;;;4.00;4.00;;;;;26.67;49.12;101428.88;5059254;28;45510;-77
2022/10/19 12:34:13;;;;;;;;;5.00;5.00;;;;;26.65;49.94;101427.34;5052925;28;45498;-75
2022/10/19 12:36:54;;;;;;;;;4.00;4.00;;;;;26.62;49.44;101405.91;5044762;28;46910;-76
2022/10/19 12:39:35;;;;;;;;;3.00;3.00;;;;;26.64;50.12;101417.50;5049856;28;46149;-77
2022/10/19 12:42:23;;;;;;;;;6.00;5.33;;;;;26.64;49.25;101407.44;5056294;28;45380;-80
2022/10/19 12:45:01;;;;;;;;;4.00;4.00;;;;;26.63;49.95;101397.56;5050547;28;45380;-78
2022/10/19 12:47:26;;;;;;;;;3.00;2.67;;;;;26.62;49.66;101395.88;5048599;28;45562;-76
2022/10/19 12:49:56;;;;;;;;;5.00;5.00;;;;;26.65;49.75;101386.50;5056534;28;46277;-75
2022/10/19 12:52:34;;;;;;;;;5.00;5.00;;;;;26.65;49.36;101386.50;5067301;28;46060;-77
2022/10/19 12:55:14;;;;;;;;;5.33;4.67;;;;;26.67;50.13;101388.03;5050877;28;45405;-75
2022/10/19 12:57:45;;;;;;;;;6.00;5.33;;;;;26.66;50.05;101378.19;5049358;28;45858;-73
2022/10/19 13:00:22;;;;;;;;;7.00;6.33;;;;;26.68;48.29;101383.41;5045288;28;45484;-75
2022/10/19 13:03:06;;;;;;;;;8.00;7.67;;;;;26.71;47.88;101366.75;5046765;28;45478;-72
2022/10/19 13:05:33;;;;;;;;;8.33;7.67;;;;;26.70;48.31;101367.78;5053562;28;45493;-75
2022/10/19 13:08:01;;;;;;;;;6.33;6.33;;;;;26.64;48.42;101357.59;5044562;28;45484;-76
2022/10/19 13:10:29;;;;;;;;;7.67;7.67;;;;;26.58;49.02;101349.06;5048199;28;46348;-74
2022/10/19 13:12:55;;;;;;;;;6.67;6.67;;;;;26.61;48.45;101341.59;5057025;28;45509;-75
2022/10/19 13:15:40;;;;;;;;;8.00;7.00;;;;;26.64;48.91;101328.47;5051799;28;45486;-75
2022/10/19 13:18:15;;;;;;;;;6.00;6.00;;;;;26.69;49.35;101325.25;5045578;28;45626;-76
2022/10/19 13:20:47;;;;;;;;;5.67;5.67;;;;;26.76;49.27;101311.78;5039512;28;47251;-76
2022/10/19 13:23:12;;;;;;;;;5.67;5.67;;;;;26.83;49.29;101304.59;5033175;28;45523;-74
2022/10/19 13:25:41;;;;;;;;;5.67;5.67;;;;;26.83;49.09;101296.41;5050080;27;45495;-77
2022/10/19 13:28:06;;;;;;;;;4.33;4.33;;;;;26.86;49.11;101304.25;5042785;28;45477;-75
2022/10/19 13:30:34;;;;;;;;;8.00;8.00;;;;;26.88;48.84;101294.00;5036924;28;45416;-74
2022/10/19 13:33:31;;;;;;;;;7.67;7.67;;;;;26.92;48.42;101292.63;5048568;28;45887;-75
2022/10/19 13:36:01;;;;;;;;;6.67;6.67;;;;;26.94;49.17;101298.75;5053755;28;45481;-75
2022/10/19 13:38:39;;;;;;;;;8.00;6.00;;;;;26.94;49.09;101285.16;5055505;28;45763;-76
2022/10/19 13:41:25;;;;;;;;;7.00;7.00;;;;;26.97;49.48;101292.09;5046394;28;45737;-75
2022/10/19 13:44:12;;;;;;;;;6.67;6.67;;;;;27.00;49.23;101286.31;5044375;28;45481;-75
2022/10/19 13:46:51;;;;;;;;;4.33;4.33;;;;;27.02;48.54;101280.69;5057647;28;45432;-76
2022/10/19 13:49:16;;;;;;;;;5.00;5.00;;;;;27.04;48.94;101281.34;5045936;28;46882;-75
2022/10/19 13:51:54;;;;;;;;;7.00;6.67;;;;;27.07;48.59;101275.56;5046069;28;45370;-74
2022/10/19 13:54:44;;;;;;;;;6.00;6.00;;;;;27.09;48.69;101268.88;5054020;28;45582;-74
2022/10/19 13:57:24;;;;;;;;;6.33;6.33;;;;;27.06;48.54;101258.34;5047014;28;45629;-74
2022/10/19 14:00:11;;;;;;;;;6.00;6.00;;;;;27.14;49.11;101262.06;5054540;28;45691;-73
2022/10/19 14:02:49;;;;;;;;;5.00;5.00;;;;;27.16;48.81;101252.69;5058710;27;47518;-75
2022/10/19 14:05:14;;;;;;;;;6.67;6.67;;;;;27.16;49.10;101238.19;5049846;28;45537;-74
2022/10/19 14:08:13;;;;;;;;;7.33;5.33;;;;;27.18;48.59;101230.69;5053992;27;45498;-74
2022/10/19 14:10:41;;;;;;;;;7.00;6.00;;;;;27.19;48.01;101226.94;5050120;28;45675;-76
2022/10/19 14:13:13;;;;;;;;;5.67;5.67;;;;;27.22;47.50;101224.69;5043118;28;45546;-76
2022/10/19 14:15:49;;;;;;;;;4.67;4.33;;;;;27.13;46.93;101220.34;5047883;28;45442;-76
2022/10/19 14:18:31;;;;;;;;;6.33;4.67;;;;;27.00;47.85;101217.34;5056073;27;45521;-76
2022/10/19 14:20:57;;;;;;;;;5.00;5.00;;;;;26.87;47.25;101223.38;5052978;28;47012;-75
2022/10/19 14:23:33;;;;;;;;;3.33;3.33;;;;;26.73;47.80;101222.28;5046578;28;45722;-75
2022/10/19 14:26:02;;;;;;;;;3.67;3.67;;;;;26.61;47.56;101225.41;5049097;28;45377;-76
2022/10/19 14:28:29;;;;;;;;;7.33;7.00;;;;;26.51;47.71;101227.47;5058381;28;45399;-76
2022/10/19 14:30:56;;;;;;;;;5.00;5.00;;;;;26.42;47.97;101219.38;5060288;28;45627;-77
2022/10/19 14:33:24;;;;;;;;;4.33;4.33;;;;;26.32;48.19;101215.97;5056544;28;47428;-76
2022/10/19 14:35:50;;;;;;;;;6.00;6.00;;;;;26.21;48.06;101213.63;5058686;28;45531;-76
2022/10/19 14:38:22;;;;;;;;;8.00;8.00;;;;;26.15;48.37;101205.13;5062333;28;45504;-76
2022/10/19 14:40:48;;;;;;;;;6.33;6.33;;;;;26.08;48.26;101206.88;5059014;27;45373;-77
2022/10/19 14:43:26;;;;;;;;;7.00;6.33;;;;;26.04;48.87;101202.81;5066255;27;46908;-76
2022/10/19 14:46:06;;;;;;;;;7.00;5.67;;;;;26.05;48.46;101199.91;5056537;28;45545;-75
2022/10/19 14:48:47;;;;;;;;;9.00;7.33;;;;;26.03;48.74;101191.06;5056544;28;45562;-75
2022/10/19 14:51:41;;;;;;;;;9.67;7.67;;;;;25.96;48.71;101192.81;5058867;28;45676;-81
2022/10/19 14:54:10;;;;;;;;;7.33;7.33;;;;;25.92;49.15;101191.44;5066477;27;46510;-77
2022/10/19 14:56:45;;;;;;;;;9.00;7.33;;;;;25.89;49.16;101189.06;5057214;27;45513;-75
2022/10/19 14:59:36;;;;;;;;;9.00;7.67;;;;;25.92;48.56;101180.56;5053245;27;45714;-77
2022/10/19 15:02:11;;;;;;;;;11.00;9.33;;;;;25.93;49.03;101174.09;5078880;27;45552;-75
2022/10/19 15:04:37;;;;;;;;;10.67;9.00;;;;;25.91;48.94;101160.69;5061957;27;47518;-76
2022/10/19 15:07:15;;;;;;;;;11.33;8.67;;;;;25.92;49.50;101158.81;5052511;28;45488;-74
2022/10/19 15:09:48;;;;;;;;;6.33;6.33;;;;;25.95;49.06;101171.22;5045002;28;45461;-75
2022/10/19 15:12:17;;;;;;;;;11.67;8.67;;;;;25.96;49.36;101165.59;5061615;27;45436;-75
2022/10/19 15:14:43;;;;;;;;;7.33;7.33;;;;;25.97;49.28;101161.84;5051435;28;46135;-75
2022/10/19 15:17:30;;;;;;;;;9.00;9.00;;;;;26.03;49.20;101168.44;5056371;28;45349;-75
2022/10/19 15:20:01;;;;;;;;;11.00;9.67;;;;;26.05;49.25;101158.25;5055944;28;45505;-75
2022/10/19 15:22:32;;;;;;;;;10.00;8.67;;;;;26.08;49.82;101162.50;5056522;28;45654;-75
2022/10/19 15:25:06;;;;;;;;;7.33;7.00;;;;;26.10;49.79;101161.28;5055746;28;46361;-79
2022/10/19 15:27:33;;;;;;;;;10.33;10.00;;;;;26.13;49.06;101155.50;5056201;28;45423;-80
2022/10/19 15:30:23;;;;;;;;;8.00;6.00;;;;;26.23;49.13;101149.00;5055449;28;45438;-81
2022/10/19 15:33:11;;;;;;;;;11.33;10.00;;;;;26.37;48.57;101144.72;5055453;28;45479;-81
2022/10/19 15:35:39;;;;;;;;;9.67;9.67;;;;;26.41;48.43;101143.34;5055758;28;46359;-80
2022/10/19 15:38:25;;;;;;;;;9.00;8.33;;;;;26.46;47.98;101137.34;5055577;28;45348;-81
2022/10/19 15:40:59;;;;;;;;;7.33;7.33;;;;;26.42;47.87;101131.41;5057847;28;45431;-81
2022/10/19 15:43:31;;;;;;;;;8.33;6.00;;;;;26.38;47.89;101138.25;5054571;28;45627;-81
2022/10/19 15:46:29;;;;;;;;;9.33;7.33;;;;;26.37;48.11;101129.25;5068613;27;46313;-80
2022/10/19 15:48:57;;;;;;;;;7.33;7.33;;;;;26.43;47.98;101130.38;5049404;28;45462;-81
2022/10/19 15:51:22;;;;;;;;;7.00;7.00;;;;;26.45;48.11;101133.78;5074908;27;45511;-81
2022/10/19 15:53:50;;;;;;;;;9.00;9.00;;;;;26.40;47.45;101126.16;5061652;28;45703;-81
2022/10/19 15:56:16;;;;;;;;;8.00;8.00;;;;;26.37;47.54;101126.53;5066121;28;46616;-81
2022/10/19 15:58:42;;;;;;;;;7.00;7.00;;;;;26.28;47.87;101127.59;5050648;27;45822;-77
2022/10/19 16:01:15;;;;;;;;;7.00;7.00;;;;;26.17;47.95;101134.25;5059982;28;45402;-77
2022/10/19 16:03:41;;;;;;;;;9.33;9.33;;;;;26.07;48.18;101131.72;5055206;28;45505;-75
2022/10/19 16:06:06;;;;;;;;;6.67;6.67;;;;;26.03;48.88;101122.22;5050776;28;46243;-75
2022/10/19 16:08:32;;;;;;;;;10.33;7.67;;;;;25.99;49.07;101110.00;5046448;28;45386;-75
2022/10/19 16:10:57;;;;;;;;;9.00;9.00;;;;;25.94;49.09;101107.81;5062030;28;53464;-75
2022/10/19 16:13:22;;;;;;;;;11.00;9.00;;;;;25.95;48.75;101120.38;5052474;28;45364;-75
2022/10/19 16:15:49;;;;;;;;;8.67;8.00;;;;;25.98;49.04;101138.22;5046959;27;45448;-75
2022/10/19 16:18:15;;;;;;;;;7.67;6.00;;;;;25.92;49.46;101126.19;5059567;28;45527;-76
2022/10/19 16:20:41;;;;;;;;;7.33;7.33;;;;;25.95;49.28;101124.97;5055626;28;45321;-76
2022/10/19 16:23:08;;;;;;;;;6.33;6.33;;;;;25.96;49.21;101122.09;5065732;28;45339;-75
2022/10/19 16:25:33;;;;;;;;;6.00;6.00;;;;;25.96;49.71;101111.22;5055179;28;46368;-75
2022/10/19 16:27:58;;;;;;;;;10.00;8.00;;;;;25.97;49.39;101101.16;5054835;28;45338;-81
2022/10/19 16:30:24;;;;;;;;;5.67;5.67;;;;;25.97;49.18;101104.75;5056738;28;45461;-80
2022/10/19 16:32:49;;;;;;;;;8.00;7.67;;;;;25.94;49.33;101090.66;5061012;27;45352;-81
2022/10/19 16:35:15;;;;;;;;;8.33;8.00;;;;;25.98;49.66;101090.13;5054900;28;45496;-80
2022/10/19 16:37:40;;;;;;;;;8.33;8.33;;;;;25.97;49.36;101088.44;5062714;27;45478;-81
2022/10/19 16:40:06;;;;;;;;;7.33;6.33;;;;;25.99;49.94;101093.69;5053923;28;45435;-80
2022/10/19 16:42:33;;;;;;;;;7.33;7.33;;;;;26.01;49.94;101091.63;5055105;28;45544;-76
2022/10/19 16:44:59;;;;;;;;;8.33;5.33;;;;;25.96;49.54;101081.31;5058077;28;47728;-77
2022/10/19 16:47:24;;;;;;;;;6.33;6.33;;;;;25.99;49.96;101085.53;5070712;28;45375;-77
2022/10/19 16:49:57;;;;;;;;;7.67;6.33;;;;;26.03;49.67;101086.84;5055992;28;45578;-77
2022/10/19 16:52:22;;;;;;;;;7.00;7.00;;;;;26.02;50.05;101086.03;5054301;28;45526;-77
2022/10/19 17:05:03;;;;;;;;;10.00;10.00;;;;;25.61;49.18;101050.84;5128343;27;45792;-73
2022/10/19 17:07:29;;;;;;;;;7.33;7.33;;;;;25.50;49.23;101050.16;5091792;27;45410;-71
2022/10/19 17:09:54;;;;;;;;;7.00;7.00;;;;;25.49;49.40;101059.34;5090302;27;46600;-71